sensor_id;sensor_type;location;lat;lon;timestamp;pressure;altitude;pressure_sealevel;temperature;humidity
12799;BME280;19250;42.646;26.980;2023-05-15T00:01:55;99208.25;;;16.76;100.00
12799;BME280;19250;42.646;26.980;2023-05-15T00:04:22;99207.63;;;16.74;100.00
12799;BME280;19250;42.646;26.980;2023-05-15T00:06:49;99205.31;;;16.92;100.00
12799;BME280;19250;42.646;26.980;2023-05-15T00:09:16;99199.53;;;16.95;99.38
12799;BME280;19250;42.646;26.980;2023-05-15T00:11:42;99187.22;;;16.86;99.84
12799;BME280;19250;42.646;26.980;2023-05-15T00:14:11;99188.84;;;16.59;100.00
12799;BME280;19250;42.646;26.980;2023-05-15T00:16:38;99192.47;;;16.52;100.00
12799;BME280;19250;42.646;26.980;2023-05-15T00:19:04;99193.16;;;16.75;100.00
12799;BME280;19250;42.646;26.980;2023-05-15T00:21:31;99196.81;;;17.16;96.96
12799;BME280;19250;42.646;26.980;2023-05-15T00:23:58;99196.34;;;17.13;96.16
12799;BME280;19250;42.646;26.980;2023-05-15T00:26:25;99191.69;;;17.00;97.46
12799;BME280;19250;42.646;26.980;2023-05-15T00:28:52;99195.69;;;16.83;96.92
12799;BME280;19250;42.646;26.980;2023-05-15T00:31:20;99204.31;;;16.72;96.54
12799;BME280;19250;42.646;26.980;2023-05-15T00:33:47;99206.25;;;16.06;100.00
12799;BME280;19250;42.646;26.980;2023-05-15T00:36:14;99193.22;;;16.24;100.00
12799;BME280;19250;42.646;26.980;2023-05-15T00:38:41;99183.13;;;16.48;100.00
12799;BME280;19250;42.646;26.980;2023-05-15T00:41:09;99177.00;;;16.39;100.00
12799;BME280;19250;42.646;26.980;2023-05-15T00:43:36;99183.53;;;16.66;100.00
12799;BME280;19250;42.646;26.980;2023-05-15T00:46:04;99177.84;;;17.03;98.29
12799;BME280;19250;42.646;26.980;2023-05-15T00:48:33;99178.38;;;16.92;96.54
12799;BME280;19250;42.646;26.980;2023-05-15T00:51:00;99175.06;;;16.69;99.27
12799;BME280;19250;42.646;26.980;2023-05-15T00:53:28;99177.09;;;16.67;100.00
12799;BME280;19250;42.646;26.980;2023-05-15T00:55:56;99183.88;;;17.05;96.70
12799;BME280;19250;42.646;26.980;2023-05-15T00:58:23;99180.06;;;16.93;97.94
12799;BME280;19250;42.646;26.980;2023-05-15T01:00:52;99174.72;;;17.00;96.37
12799;BME280;19250;42.646;26.980;2023-05-15T01:03:19;99173.88;;;16.99;96.92
12799;BME280;19250;42.646;26.980;2023-05-15T01:05:47;99174.66;;;16.93;96.16
12799;BME280;19250;42.646;26.980;2023-05-15T01:08:15;99173.81;;;16.93;96.88
12799;BME280;19250;42.646;26.980;2023-05-15T01:10:45;99165.81;;;16.99;96.41
12799;BME280;19250;42.646;26.980;2023-05-15T01:13:13;99160.25;;;17.07;95.12
12799;BME280;19250;42.646;26.980;2023-05-15T01:15:39;99154.34;;;17.25;91.88
12799;BME280;19250;42.646;26.980;2023-05-15T01:18:06;99140.44;;;17.15;92.32
12799;BME280;19250;42.646;26.980;2023-05-15T01:20:37;99134.78;;;16.82;95.18
12799;BME280;19250;42.646;26.980;2023-05-15T01:23:14;99131.34;;;16.67;97.91
12799;BME280;19250;42.646;26.980;2023-05-15T01:25:56;99130.06;;;16.63;98.70
12799;BME280;19250;42.646;26.980;2023-05-15T01:28:31;99119.66;;;16.81;97.22
12799;BME280;19250;42.646;26.980;2023-05-15T01:31:00;99126.06;;;15.95;100.00
12799;BME280;19250;42.646;26.980;2023-05-15T01:33:32;99123.78;;;15.34;100.00
12799;BME280;19250;42.646;26.980;2023-05-15T01:36:00;99117.78;;;15.32;100.00
12799;BME280;19250;42.646;26.980;2023-05-15T01:38:32;99124.16;;;15.74;100.00
12799;BME280;19250;42.646;26.980;2023-05-15T01:41:01;99117.03;;;15.67;100.00
12799;BME280;19250;42.646;26.980;2023-05-15T01:43:28;99121.41;;;15.53;100.00
12799;BME280;19250;42.646;26.980;2023-05-15T01:45:58;99119.78;;;15.44;100.00
12799;BME280;19250;42.646;26.980;2023-05-15T01:48:26;99109.13;;;15.80;100.00
12799;BME280;19250;42.646;26.980;2023-05-15T01:50:54;99108.53;;;15.85;100.00
12799;BME280;19250;42.646;26.980;2023-05-15T01:53:25;99123.16;;;15.61;100.00
12799;BME280;19250;42.646;26.980;2023-05-15T01:55:52;99117.31;;;15.28;100.00
12799;BME280;19250;42.646;26.980;2023-05-15T01:58:20;99100.53;;;15.26;100.00
12799;BME280;19250;42.646;26.980;2023-05-15T02:00:48;99091.63;;;15.11;100.00
12799;BME280;19250;42.646;26.980;2023-05-15T02:03:17;99099.44;;;15.06;100.00
12799;BME280;19250;42.646;26.980;2023-05-15T02:05:44;99099.25;;;15.07;100.00
12799;BME280;19250;42.646;26.980;2023-05-15T02:08:12;99101.53;;;14.96;100.00
12799;BME280;19250;42.646;26.980;2023-05-15T02:10:39;99090.22;;;14.71;100.00
12799;BME280;19250;42.646;26.980;2023-05-15T02:13:09;99099.28;;;14.55;100.00
12799;BME280;19250;42.646;26.980;2023-05-15T02:15:37;99102.09;;;14.31;100.00
12799;BME280;19250;42.646;26.980;2023-05-15T02:18:04;99105.19;;;14.65;100.00
12799;BME280;19250;42.646;26.980;2023-05-15T02:20:32;99102.00;;;14.70;100.00
12799;BME280;19250;42.646;26.980;2023-05-15T02:22:59;99097.09;;;14.74;100.00
12799;BME280;19250;42.646;26.980;2023-05-15T02:25:27;99094.31;;;14.96;100.00
12799;BME280;19250;42.646;26.980;2023-05-15T02:27:59;99085.81;;;15.22;100.00
12799;BME280;19250;42.646;26.980;2023-05-15T02:30:29;99082.94;;;15.23;100.00
12799;BME280;19250;42.646;26.980;2023-05-15T02:33:03;99078.84;;;15.57;100.00
12799;BME280;19250;42.646;26.980;2023-05-15T02:35:34;99073.47;;;14.84;100.00
12799;BME280;19250;42.646;26.980;2023-05-15T02:38:05;99073.78;;;14.37;100.00
12799;BME280;19250;42.646;26.980;2023-05-15T02:40:33;99061.88;;;14.31;100.00
12799;BME280;19250;42.646;26.980;2023-05-15T02:43:01;99055.63;;;14.76;100.00
12799;BME280;19250;42.646;26.980;2023-05-15T02:45:28;99064.59;;;14.83;100.00
12799;BME280;19250;42.646;26.980;2023-05-15T02:47:56;99065.34;;;14.92;100.00
12799;BME280;19250;42.646;26.980;2023-05-15T02:50:24;99064.78;;;14.96;100.00
12799;BME280;19250;42.646;26.980;2023-05-15T02:53:01;99069.03;;;15.35;100.00
12799;BME280;19250;42.646;26.980;2023-05-15T02:55:28;99068.09;;;15.57;100.00
12799;BME280;19250;42.646;26.980;2023-05-15T02:57:55;99074.34;;;15.78;100.00
12799;BME280;19250;42.646;26.980;2023-05-15T03:00:22;99073.84;;;15.54;100.00
12799;BME280;19250;42.646;26.980;2023-05-15T03:02:49;99058.81;;;15.45;100.00
12799;BME280;19250;42.646;26.980;2023-05-15T03:05:16;99060.81;;;15.21;98.36
12799;BME280;19250;42.646;26.980;2023-05-15T03:07:43;99077.56;;;15.23;94.85
12799;BME280;19250;42.646;26.980;2023-05-15T03:10:11;99079.25;;;15.24;94.56
12799;BME280;19250;42.646;26.980;2023-05-15T03:12:38;99080.97;;;15.47;92.42
12799;BME280;19250;42.646;26.980;2023-05-15T03:15:05;99070.53;;;15.52;90.21
12799;BME280;19250;42.646;26.980;2023-05-15T03:17:32;99091.94;;;15.81;87.51
12799;BME280;19250;42.646;26.980;2023-05-15T03:19:59;99109.63;;;15.10;94.32
12799;BME280;19250;42.646;26.980;2023-05-15T03:22:26;99100.53;;;15.41;92.09
12799;BME280;19250;42.646;26.980;2023-05-15T03:24:53;99093.78;;;15.30;93.11
12799;BME280;19250;42.646;26.980;2023-05-15T03:27:21;99095.38;;;15.75;91.15
12799;BME280;19250;42.646;26.980;2023-05-15T03:29:48;99100.88;;;15.67;90.99
12799;BME280;19250;42.646;26.980;2023-05-15T03:32:15;99094.53;;;15.89;88.86
12799;BME280;19250;42.646;26.980;2023-05-15T03:34:42;99090.88;;;15.97;88.93
12799;BME280;19250;42.646;26.980;2023-05-15T03:37:09;99099.16;;;15.95;87.82
12799;BME280;19250;42.646;26.980;2023-05-15T03:39:36;99099.25;;;15.87;89.19
12799;BME280;19250;42.646;26.980;2023-05-15T03:42:03;99106.84;;;16.19;84.55
12799;BME280;19250;42.646;26.980;2023-05-15T03:44:31;99092.00;;;16.23;83.16
12799;BME280;19250;42.646;26.980;2023-05-15T03:46:58;99095.47;;;16.17;83.53
12799;BME280;19250;42.646;26.980;2023-05-15T03:49:25;99097.56;;;16.43;83.90
12799;BME280;19250;42.646;26.980;2023-05-15T03:51:52;99098.78;;;16.62;83.50
12799;BME280;19250;42.646;26.980;2023-05-15T03:54:19;99102.78;;;16.51;80.37
12799;BME280;19250;42.646;26.980;2023-05-15T03:56:45;99111.41;;;16.40;81.49
12799;BME280;19250;42.646;26.980;2023-05-15T03:59:12;99108.53;;;16.63;79.64
12799;BME280;19250;42.646;26.980;2023-05-15T04:01:41;99104.38;;;16.88;77.35
12799;BME280;19250;42.646;26.980;2023-05-15T04:04:07;99103.19;;;16.48;79.22
12799;BME280;19250;42.646;26.980;2023-05-15T04:06:34;99103.00;;;15.86;83.23
12799;BME280;19250;42.646;26.980;2023-05-15T04:09:01;99112.47;;;16.03;82.92
12799;BME280;19250;42.646;26.980;2023-05-15T04:11:28;99101.03;;;16.16;79.71
12799;BME280;19250;42.646;26.980;2023-05-15T04:13:55;99087.00;;;16.20;78.31
12799;BME280;19250;42.646;26.980;2023-05-15T04:16:22;99079.75;;;16.00;79.55
12799;BME280;19250;42.646;26.980;2023-05-15T04:18:50;99070.78;;;15.71;82.03
12799;BME280;19250;42.646;26.980;2023-05-15T04:21:17;99068.38;;;15.62;83.70
12799;BME280;19250;42.646;26.980;2023-05-15T04:23:44;99065.38;;;15.71;82.62
12799;BME280;19250;42.646;26.980;2023-05-15T04:26:11;99075.44;;;15.84;82.91
12799;BME280;19250;42.646;26.980;2023-05-15T04:28:38;99083.28;;;16.00;80.61
12799;BME280;19250;42.646;26.980;2023-05-15T04:31:05;99086.34;;;15.97;80.13
12799;BME280;19250;42.646;26.980;2023-05-15T04:33:32;99086.97;;;15.99;80.73
12799;BME280;19250;42.646;26.980;2023-05-15T04:36:00;99086.53;;;15.96;79.88
12799;BME280;19250;42.646;26.980;2023-05-15T04:38:27;99089.56;;;16.07;79.36
12799;BME280;19250;42.646;26.980;2023-05-15T04:40:54;99102.38;;;16.48;77.03
12799;BME280;19250;42.646;26.980;2023-05-15T04:43:21;99107.94;;;16.95;72.90
12799;BME280;19250;42.646;26.980;2023-05-15T04:45:48;99118.66;;;16.61;74.23
12799;BME280;19250;42.646;26.980;2023-05-15T04:48:15;99111.31;;;16.76;73.81
12799;BME280;19250;42.646;26.980;2023-05-15T04:50:43;99110.06;;;16.51;74.08
12799;BME280;19250;42.646;26.980;2023-05-15T04:53:11;99097.41;;;16.51;75.69
12799;BME280;19250;42.646;26.980;2023-05-15T04:55:38;99092.84;;;16.66;74.89
12799;BME280;19250;42.646;26.980;2023-05-15T04:58:05;99019.09;;;16.46;72.65
12799;BME280;19250;42.646;26.980;2023-05-15T05:00:32;99101.09;;;16.93;72.55
12799;BME280;19250;42.646;26.980;2023-05-15T05:02:59;99106.13;;;17.02;70.72
12799;BME280;19250;42.646;26.980;2023-05-15T05:05:26;99106.38;;;17.07;70.21
12799;BME280;19250;42.646;26.980;2023-05-15T05:07:53;99101.03;;;17.14;69.00
12799;BME280;19250;42.646;26.980;2023-05-15T05:10:21;99111.41;;;16.61;72.91
12799;BME280;19250;42.646;26.980;2023-05-15T05:12:48;99109.41;;;17.32;69.44
12799;BME280;19250;42.646;26.980;2023-05-15T05:15:15;99111.91;;;17.61;66.38
12799;BME280;19250;42.646;26.980;2023-05-15T05:17:41;99111.72;;;17.01;69.75
12799;BME280;19250;42.646;26.980;2023-05-15T05:20:09;99107.88;;;16.61;74.16
12799;BME280;19250;42.646;26.980;2023-05-15T05:22:36;99110.06;;;17.00;72.35
12799;BME280;19250;42.646;26.980;2023-05-15T05:25:05;99105.72;;;17.33;68.29
12799;BME280;19250;42.646;26.980;2023-05-15T05:27:33;99107.38;;;17.40;67.53
12799;BME280;19250;42.646;26.980;2023-05-15T05:30:00;99116.34;;;17.48;65.93
12799;BME280;19250;42.646;26.980;2023-05-15T05:32:27;99115.69;;;17.39;67.17
12799;BME280;19250;42.646;26.980;2023-05-15T05:34:54;99097.34;;;17.21;68.58
12799;BME280;19250;42.646;26.980;2023-05-15T05:37:21;99081.44;;;17.67;64.89
12799;BME280;19250;42.646;26.980;2023-05-15T05:39:48;99083.53;;;17.78;63.05
12799;BME280;19250;42.646;26.980;2023-05-15T05:42:14;99077.59;;;18.09;59.95
12799;BME280;19250;42.646;26.980;2023-05-15T05:44:43;99076.97;;;18.01;60.88
12799;BME280;19250;42.646;26.980;2023-05-15T05:47:10;99081.34;;;17.54;63.84
12799;BME280;19250;42.646;26.980;2023-05-15T05:49:36;99102.84;;;17.41;65.18
12799;BME280;19250;42.646;26.980;2023-05-15T05:52:05;99090.38;;;17.81;63.02
12799;BME280;19250;42.646;26.980;2023-05-15T05:54:32;99077.75;;;18.01;61.71
12799;BME280;19250;42.646;26.980;2023-05-15T05:56:59;99082.97;;;18.03;63.63
12799;BME280;19250;42.646;26.980;2023-05-15T05:59:26;99081.16;;;17.56;65.09
12799;BME280;19250;42.646;26.980;2023-05-15T06:01:54;99086.75;;;18.41;62.23
12799;BME280;19250;42.646;26.980;2023-05-15T06:04:21;99096.56;;;18.88;57.35
12799;BME280;19250;42.646;26.980;2023-05-15T06:06:48;99096.97;;;18.98;56.23
12799;BME280;19250;42.646;26.980;2023-05-15T06:09:15;99102.19;;;18.67;57.66
12799;BME280;19250;42.646;26.980;2023-05-15T06:11:42;99099.03;;;18.96;55.74
12799;BME280;19250;42.646;26.980;2023-05-15T06:14:09;99091.50;;;19.24;54.58
12799;BME280;19250;42.646;26.980;2023-05-15T06:16:36;99087.84;;;18.86;55.73
12799;BME280;19250;42.646;26.980;2023-05-15T06:19:05;99083.22;;;19.19;53.71
12799;BME280;19250;42.646;26.980;2023-05-15T06:21:32;99087.38;;;19.02;54.44
12799;BME280;19250;42.646;26.980;2023-05-15T06:23:58;99089.22;;;19.21;54.76
12799;BME280;19250;42.646;26.980;2023-05-15T06:26:26;99097.75;;;19.18;54.53
12799;BME280;19250;42.646;26.980;2023-05-15T06:28:53;99094.06;;;19.77;52.61
12799;BME280;19250;42.646;26.980;2023-05-15T06:31:20;99081.97;;;20.17;49.87
12799;BME280;19250;42.646;26.980;2023-05-15T06:33:47;99075.44;;;20.31;50.38
12799;BME280;19250;42.646;26.980;2023-05-15T06:36:16;99078.91;;;20.07;50.77
12799;BME280;19250;42.646;26.980;2023-05-15T06:38:44;99075.13;;;19.77;52.50
12799;BME280;19250;42.646;26.980;2023-05-15T06:41:11;99074.97;;;20.03;51.53
12799;BME280;19250;42.646;26.980;2023-05-15T06:43:38;99083.34;;;19.95;50.34
12799;BME280;19250;42.646;26.980;2023-05-15T06:46:05;99083.91;;;19.72;51.37
12799;BME280;19250;42.646;26.980;2023-05-15T06:48:32;99081.41;;;20.08;50.28
12799;BME280;19250;42.646;26.980;2023-05-15T06:51:00;99079.81;;;20.32;49.71
12799;BME280;19250;42.646;26.980;2023-05-15T06:53:29;99078.84;;;20.51;47.93
12799;BME280;19250;42.646;26.980;2023-05-15T06:55:56;99081.78;;;20.75;47.50
12799;BME280;19250;42.646;26.980;2023-05-15T06:58:24;99077.19;;;21.00;47.22
12799;BME280;19250;42.646;26.980;2023-05-15T07:00:51;99071.09;;;20.30;48.51
12799;BME280;19250;42.646;26.980;2023-05-15T07:03:18;99075.19;;;20.39;48.75
12799;BME280;19250;42.646;26.980;2023-05-15T07:05:45;99070.38;;;20.41;48.63
12799;BME280;19250;42.646;26.980;2023-05-15T07:08:13;99066.84;;;20.03;49.30
12799;BME280;19250;42.646;26.980;2023-05-15T07:10:41;99064.88;;;19.85;50.45
12799;BME280;19250;42.646;26.980;2023-05-15T07:13:08;99072.41;;;19.77;50.79
12799;BME280;19250;42.646;26.980;2023-05-15T07:15:35;99066.50;;;19.48;52.25
12799;BME280;19250;42.646;26.980;2023-05-15T07:18:03;99066.00;;;18.87;54.42
12799;BME280;19250;42.646;26.980;2023-05-15T07:20:30;99063.94;;;18.76;54.12
12799;BME280;19250;42.646;26.980;2023-05-15T07:22:57;99063.28;;;18.15;59.15
12799;BME280;19250;42.646;26.980;2023-05-15T07:25:24;99068.31;;;18.77;56.50
12799;BME280;19250;42.646;26.980;2023-05-15T07:27:53;99068.56;;;19.60;52.42
12799;BME280;19250;42.646;26.980;2023-05-15T07:30:20;99063.00;;;19.41;54.74
12799;BME280;19250;42.646;26.980;2023-05-15T07:32:48;99056.63;;;19.67;52.09
12799;BME280;19250;42.646;26.980;2023-05-15T07:35:15;99062.63;;;19.76;53.67
12799;BME280;19250;42.646;26.980;2023-05-15T07:37:42;99052.31;;;19.97;52.65
12799;BME280;19250;42.646;26.980;2023-05-15T07:40:11;99040.78;;;20.64;48.98
12799;BME280;19250;42.646;26.980;2023-05-15T07:42:41;99035.97;;;20.48;50.93
12799;BME280;19250;42.646;26.980;2023-05-15T07:45:09;99051.44;;;20.03;53.08
12799;BME280;19250;42.646;26.980;2023-05-15T07:47:37;99043.63;;;19.89;55.36
12799;BME280;19250;42.646;26.980;2023-05-15T07:50:05;99047.84;;;20.09;55.67
12799;BME280;19250;42.646;26.980;2023-05-15T07:52:32;99048.63;;;20.54;53.07
12799;BME280;19250;42.646;26.980;2023-05-15T07:54:59;99056.22;;;21.07;47.58
12799;BME280;19250;42.646;26.980;2023-05-15T07:57:26;99059.13;;;21.66;46.36
12799;BME280;19250;42.646;26.980;2023-05-15T07:59:53;99045.63;;;21.60;46.17
12799;BME280;19250;42.646;26.980;2023-05-15T08:02:22;99045.38;;;21.07;47.48
12799;BME280;19250;42.646;26.980;2023-05-15T08:04:49;99052.41;;;20.72;46.56
12799;BME280;19250;42.646;26.980;2023-05-15T08:07:16;99042.94;;;21.24;45.31
12799;BME280;19250;42.646;26.980;2023-05-15T08:09:43;99041.19;;;21.47;45.25
12799;BME280;19250;42.646;26.980;2023-05-15T08:12:14;99034.72;;;21.30;46.51
12799;BME280;19250;42.646;26.980;2023-05-15T08:14:46;99039.25;;;21.18;45.34
12799;BME280;19250;42.646;26.980;2023-05-15T08:17:14;99031.75;;;20.95;46.24
12799;BME280;19250;42.646;26.980;2023-05-15T08:19:43;99045.56;;;20.69;45.68
12799;BME280;19250;42.646;26.980;2023-05-15T08:22:10;99028.13;;;21.01;46.23
12799;BME280;19250;42.646;26.980;2023-05-15T08:24:37;99029.44;;;21.17;45.32
12799;BME280;19250;42.646;26.980;2023-05-15T08:27:05;99029.84;;;20.96;43.68
12799;BME280;19250;42.646;26.980;2023-05-15T08:29:33;99035.19;;;21.27;43.35
12799;BME280;19250;42.646;26.980;2023-05-15T08:32:00;99028.03;;;20.90;45.55
12799;BME280;19250;42.646;26.980;2023-05-15T08:34:28;99006.06;;;20.98;46.61
12799;BME280;19250;42.646;26.980;2023-05-15T08:36:57;99035.69;;;22.02;44.74
12799;BME280;19250;42.646;26.980;2023-05-15T08:39:24;99040.28;;;22.43;43.72
12799;BME280;19250;42.646;26.980;2023-05-15T08:41:55;99044.66;;;22.32;42.44
12799;BME280;19250;42.646;26.980;2023-05-15T08:44:23;99036.44;;;22.73;41.30
12799;BME280;19250;42.646;26.980;2023-05-15T08:46:52;99052.53;;;22.22;39.55
12799;BME280;19250;42.646;26.980;2023-05-15T08:49:26;99046.22;;;22.10;41.46
12799;BME280;19250;42.646;26.980;2023-05-15T08:51:54;99037.09;;;22.57;42.10
12799;BME280;19250;42.646;26.980;2023-05-15T08:54:23;99025.22;;;22.70;41.29
12799;BME280;19250;42.646;26.980;2023-05-15T08:56:51;99030.06;;;22.80;39.97
12799;BME280;19250;42.646;26.980;2023-05-15T08:59:19;99042.69;;;23.20;39.29
12799;BME280;19250;42.646;26.980;2023-05-15T09:01:46;99048.88;;;22.93;40.21
12799;BME280;19250;42.646;26.980;2023-05-15T09:04:14;99026.38;;;22.97;40.21
12799;BME280;19250;42.646;26.980;2023-05-15T09:06:42;99023.53;;;23.15;41.53
12799;BME280;19250;42.646;26.980;2023-05-15T09:09:10;99021.06;;;22.03;42.05
12799;BME280;19250;42.646;26.980;2023-05-15T09:11:43;99020.66;;;22.29;41.12
12799;BME280;19250;42.646;26.980;2023-05-15T09:14:10;99030.13;;;22.50;40.58
12799;BME280;19250;42.646;26.980;2023-05-15T09:16:38;99028.16;;;21.86;41.40
12799;BME280;19250;42.646;26.980;2023-05-15T09:19:06;98996.22;;;21.69;42.59
12799;BME280;19250;42.646;26.980;2023-05-15T09:21:33;99023.50;;;21.75;42.68
12799;BME280;19250;42.646;26.980;2023-05-15T09:24:18;99025.19;;;22.58;41.80
12799;BME280;19250;42.646;26.980;2023-05-15T09:27:00;99029.22;;;22.14;40.78
12799;BME280;19250;42.646;26.980;2023-05-15T09:29:28;99022.00;;;22.85;39.65
12799;BME280;19250;42.646;26.980;2023-05-15T09:31:56;99019.13;;;22.33;41.23
12799;BME280;19250;42.646;26.980;2023-05-15T09:34:29;99004.13;;;23.23;40.55
12799;BME280;19250;42.646;26.980;2023-05-15T09:36:57;99005.88;;;23.41;39.73
12799;BME280;19250;42.646;26.980;2023-05-15T09:39:24;99007.59;;;22.96;40.22
12799;BME280;19250;42.646;26.980;2023-05-15T09:41:53;99001.13;;;23.48;39.36
12799;BME280;19250;42.646;26.980;2023-05-15T09:44:24;99004.88;;;24.15;38.04
12799;BME280;19250;42.646;26.980;2023-05-15T09:46:52;99005.50;;;24.06;38.35
12799;BME280;19250;42.646;26.980;2023-05-15T09:49:19;99002.38;;;23.85;38.56
12799;BME280;19250;42.646;26.980;2023-05-15T09:51:47;98970.94;;;24.40;37.44
12799;BME280;19250;42.646;26.980;2023-05-15T09:54:16;99005.47;;;24.84;36.73
12799;BME280;19250;42.646;26.980;2023-05-15T09:56:44;99007.72;;;24.09;37.95
12799;BME280;19250;42.646;26.980;2023-05-15T09:59:14;98942.31;;;23.36;38.57
12799;BME280;19250;42.646;26.980;2023-05-15T10:01:42;98998.81;;;22.59;39.94
12799;BME280;19250;42.646;26.980;2023-05-15T10:04:11;99008.22;;;23.49;38.51
12799;BME280;19250;42.646;26.980;2023-05-15T10:06:40;99003.66;;;23.26;40.13
12799;BME280;19250;42.646;26.980;2023-05-15T10:09:09;99005.09;;;23.17;39.98
12799;BME280;19250;42.646;26.980;2023-05-15T10:11:38;99008.38;;;23.19;39.60
12799;BME280;19250;42.646;26.980;2023-05-15T10:14:07;99003.66;;;23.15;39.74
12799;BME280;19250;42.646;26.980;2023-05-15T10:16:37;98992.56;;;23.56;38.84
12799;BME280;19250;42.646;26.980;2023-05-15T10:19:05;99005.06;;;23.41;39.41
12799;BME280;19250;42.646;26.980;2023-05-15T10:21:34;98988.56;;;25.04;37.30
12799;BME280;19250;42.646;26.980;2023-05-15T10:24:02;98990.91;;;25.17;36.78
12799;BME280;19250;42.646;26.980;2023-05-15T10:29:21;98974.06;;;23.42;39.19
12799;BME280;19250;42.646;26.980;2023-05-15T10:31:52;98985.66;;;23.94;38.08
12799;BME280;19250;42.646;26.980;2023-05-15T10:34:20;98975.19;;;24.02;38.01
12799;BME280;19250;42.646;26.980;2023-05-15T10:36:48;98982.09;;;24.21;37.95
12799;BME280;19250;42.646;26.980;2023-05-15T10:39:16;98947.25;;;23.95;37.81
12799;BME280;19250;42.646;26.980;2023-05-15T10:41:44;98963.50;;;24.52;37.50
12799;BME280;19250;42.646;26.980;2023-05-15T10:44:13;98970.69;;;25.83;36.32
12799;BME280;19250;42.646;26.980;2023-05-15T10:46:42;98972.25;;;25.74;36.18
12799;BME280;19250;42.646;26.980;2023-05-15T10:49:10;98961.31;;;27.11;34.23
12799;BME280;19250;42.646;26.980;2023-05-15T10:51:38;98956.09;;;25.72;34.75
12799;BME280;19250;42.646;26.980;2023-05-15T10:54:07;98959.72;;;26.05;34.69
12799;BME280;19250;42.646;26.980;2023-05-15T10:56:37;98952.50;;;26.20;34.81
12799;BME280;19250;42.646;26.980;2023-05-15T10:59:05;98963.41;;;26.89;33.27
12799;BME280;19250;42.646;26.980;2023-05-15T11:01:34;98960.88;;;25.17;36.02
12799;BME280;19250;42.646;26.980;2023-05-15T11:04:06;98950.78;;;26.14;34.58
12799;BME280;19250;42.646;26.980;2023-05-15T11:06:35;98951.63;;;25.39;35.73
12799;BME280;19250;42.646;26.980;2023-05-15T11:09:34;98958.44;;;26.49;33.69
12799;BME280;19250;42.646;26.980;2023-05-15T11:12:02;98947.59;;;27.68;32.74
12799;BME280;19250;42.646;26.980;2023-05-15T11:14:29;98945.53;;;29.40;30.77
12799;BME280;19250;42.646;26.980;2023-05-15T11:16:57;98951.50;;;28.07;31.17
12799;BME280;19250;42.646;26.980;2023-05-15T11:19:30;98945.81;;;27.37;32.57
12799;BME280;19250;42.646;26.980;2023-05-15T11:21:59;98940.25;;;27.12;33.20
12799;BME280;19250;42.646;26.980;2023-05-15T11:24:26;98934.41;;;26.88;32.94
12799;BME280;19250;42.646;26.980;2023-05-15T11:26:58;98941.16;;;26.12;34.13
12799;BME280;19250;42.646;26.980;2023-05-15T11:29:24;98933.88;;;25.64;34.94
12799;BME280;19250;42.646;26.980;2023-05-15T11:31:51;98939.31;;;25.85;35.40
12799;BME280;19250;42.646;26.980;2023-05-15T11:34:27;98931.91;;;24.72;38.32
12799;BME280;19250;42.646;26.980;2023-05-15T11:36:55;98934.31;;;25.77;36.51
12799;BME280;19250;42.646;26.980;2023-05-15T11:39:25;98915.88;;;25.41;36.63
12799;BME280;19250;42.646;26.980;2023-05-15T11:41:53;98928.78;;;24.64;37.42
12799;BME280;19250;42.646;26.980;2023-05-15T11:44:21;98928.66;;;24.92;37.75
12799;BME280;19250;42.646;26.980;2023-05-15T11:46:49;98924.69;;;25.05;38.33
12799;BME280;19250;42.646;26.980;2023-05-15T11:49:18;98899.06;;;25.06;38.21
12799;BME280;19250;42.646;26.980;2023-05-15T11:51:47;98919.56;;;25.08;38.49
12799;BME280;19250;42.646;26.980;2023-05-15T11:54:15;98916.19;;;25.23;37.90
12799;BME280;19250;42.646;26.980;2023-05-15T11:56:44;98915.28;;;25.61;37.63
12799;BME280;19250;42.646;26.980;2023-05-15T11:59:12;98907.34;;;24.89;39.45
12799;BME280;19250;42.646;26.980;2023-05-15T12:01:41;98898.06;;;25.12;39.27
12799;BME280;19250;42.646;26.980;2023-05-15T12:04:13;98890.25;;;24.99;39.97
12799;BME280;19250;42.646;26.980;2023-05-15T12:06:40;98885.28;;;25.17;40.09
12799;BME280;19250;42.646;26.980;2023-05-15T12:09:13;98883.78;;;25.05;40.37
12799;BME280;19250;42.646;26.980;2023-05-15T12:11:49;98877.13;;;26.03;38.63
12799;BME280;19250;42.646;26.980;2023-05-15T12:14:16;98876.59;;;26.06;38.09
12799;BME280;19250;42.646;26.980;2023-05-15T12:16:43;98884.50;;;25.70;39.06
12799;BME280;19250;42.646;26.980;2023-05-15T12:19:11;98872.75;;;25.70;38.45
12799;BME280;19250;42.646;26.980;2023-05-15T12:21:38;98879.44;;;25.52;39.38
12799;BME280;19250;42.646;26.980;2023-05-15T12:24:11;98873.63;;;25.22;40.16
12799;BME280;19250;42.646;26.980;2023-05-15T12:26:39;98881.78;;;24.78;40.23
12799;BME280;19250;42.646;26.980;2023-05-15T12:29:08;98873.44;;;24.47;40.82
12799;BME280;19250;42.646;26.980;2023-05-15T12:31:35;98867.34;;;24.40;41.25
12799;BME280;19250;42.646;26.980;2023-05-15T12:34:03;98856.16;;;24.58;40.81
12799;BME280;19250;42.646;26.980;2023-05-15T12:36:30;98858.63;;;23.88;42.70
12799;BME280;19250;42.646;26.980;2023-05-15T12:39:03;98871.34;;;23.82;41.82
12799;BME280;19250;42.646;26.980;2023-05-15T12:41:31;98887.38;;;24.12;40.81
12799;BME280;19250;42.646;26.980;2023-05-15T12:43:58;98890.53;;;25.99;38.69
12799;BME280;19250;42.646;26.980;2023-05-15T12:46:30;98892.78;;;26.44;37.05
12799;BME280;19250;42.646;26.980;2023-05-15T12:48:58;98862.09;;;25.68;37.59
12799;BME280;19250;42.646;26.980;2023-05-15T12:51:26;98909.75;;;25.82;37.07
12799;BME280;19250;42.646;26.980;2023-05-15T12:53:54;98912.06;;;25.69;37.45
12799;BME280;19250;42.646;26.980;2023-05-15T12:56:23;98911.69;;;25.33;38.57